East Berkshire, New York
Current Conditions -  °F | °C
As of 1:04 AM on Friday 19 Dec 2014 (Local Time) from KBGM Reporting Station
Haze Haze  
Wind Chill: 19°   Ceiling: 600
Heat Index: 27°   Visibility: 4mi
Dew Point: 26°   Wind: 8mph
Humidity: 96%   Direction: 320°NW
Pressure: 29.94"   Gusts: NA
Location:  42.3124°N, 76.194°W
Report Text: KBGM 190604Z AUTO 32007KT 4SM BR BKN006 OVC010 M03/M03 A2994 RMK AO2 T10281033 $
Loading
Personal Weather Stations






























Interactive Weather Map New forecast layout! Learn more

10-Day Weather Forecast

Advertisements
Track Severe Weather on mobile